Terminal Aerodrome Forecast
Issued by NWS Grand Junction, CO

Home | Current Version | Previous Version | Text Only | Print | Product List | Glossary On
Versions: 1 2 3 4 5 6 7 8 9 10 11 12 13 14 15 16 17 18 19 20 21 22 23 24 25 26 27 28 29 30 31 32 33 34 35 36 37
000
FTUS45 KGJT 211130
TAFGJT
TAF
KGJT 211130Z 2112/2212 VRB04KT P6SM VCSH BKN024 OVC070
      TEMPO 2112/2115 SCT024 BKN070
     FM211500 11005KT P6SM VCSH SCT050 BKN070
     FM211800 VRB04KT P6SM VCSH OVC060
     FM212100 02008G14KT P6SM VCSH OVC050
     FM220300 04010G20KT P6SM VCSH OVC020=

USA.gov is the U.S. government's official web portal to all federal, state and local government web resources and services.